createdAt,value
2022-08-23T00:02:28.679Z,84.22
2022-08-23T00:05:08.236Z,83.91
2022-08-23T00:07:44.191Z,84.42
2022-08-23T00:10:19.083Z,84.34
2022-08-23T00:12:49.843Z,85.04
2022-08-23T00:15:20.502Z,84.43
2022-08-23T00:17:51.201Z,83.94
2022-08-23T00:20:31.661Z,83.44
2022-08-23T00:22:59.596Z,83.48
2022-08-23T00:25:28.384Z,83.30
2022-08-23T00:27:57.416Z,84.24
2022-08-23T00:30:28.010Z,84.16
2022-08-23T00:32:59.047Z,84.12
2022-08-23T00:35:31.042Z,84.30
2022-08-23T00:38:31.940Z,84.41
2022-08-23T00:40:57.392Z,83.66
2022-08-23T00:43:51.194Z,83.82
2022-08-23T00:47:17.690Z,84.16
2022-08-23T00:49:50.483Z,83.51
2022-08-23T00:53:06.810Z,83.96
2022-08-23T00:55:36.914Z,83.80
2022-08-23T00:58:05.211Z,84.50
2022-08-23T01:00:32.968Z,84.47
2022-08-23T01:03:10.080Z,84.15
2022-08-23T01:06:16.400Z,83.87
2022-08-23T01:08:56.800Z,83.59
2022-08-23T01:11:38.294Z,83.68
2022-08-23T01:14:15.712Z,83.25
2022-08-23T01:17:05.920Z,83.29
2022-08-23T01:19:54.028Z,84.57
2022-08-23T01:22:58.170Z,84.73
2022-08-23T01:25:30.655Z,84.65
2022-08-23T01:28:00.606Z,84.88
2022-08-23T01:30:35.658Z,84.81
2022-08-23T01:33:07.211Z,84.88
2022-08-23T01:35:40.149Z,84.43
2022-08-23T01:38:09.862Z,84.58
2022-08-23T01:40:39.457Z,85.10
2022-08-23T01:43:11.119Z,84.78
2022-08-23T01:45:43.685Z,84.66
2022-08-23T01:51:06.788Z,85.17
2022-08-23T01:53:39.130Z,85.90
2022-08-23T01:56:10.657Z,85.68
2022-08-23T01:58:40.741Z,85.38
2022-08-23T02:01:09.818Z,84.94
2022-08-23T02:03:38.660Z,85.07
2022-08-23T02:06:06.949Z,85.26
2022-08-23T02:08:56.786Z,85.28
2022-08-23T02:11:29.659Z,85.07
2022-08-23T02:13:59.036Z,85.43
2022-08-23T02:16:41.763Z,85.46
2022-08-23T02:19:13.817Z,85.11
2022-08-23T02:21:43.290Z,85.46
2022-08-23T02:24:16.341Z,85.51
2022-08-23T02:26:52.868Z,85.49
2022-08-23T02:29:30.493Z,85.47
2022-08-23T02:32:06.813Z,84.92
2022-08-23T02:34:35.451Z,85.16
2022-08-23T02:37:04.971Z,85.00
2022-08-23T02:39:41.354Z,85.11
2022-08-23T02:42:18.800Z,85.07
2022-08-23T02:44:49.357Z,85.60
2022-08-23T02:47:18.347Z,85.71
2022-08-23T02:49:59.679Z,85.86
2022-08-23T02:52:29.130Z,85.17
2022-08-23T02:55:00.228Z,85.04
2022-08-23T02:57:31.689Z,84.74
2022-08-23T03:00:05.344Z,85.01
2022-08-23T03:02:37.029Z,85.56
2022-08-23T03:05:10.261Z,85.86
2022-08-23T03:07:41.041Z,86.38
2022-08-23T03:10:11.439Z,86.55
2022-08-23T03:12:46.251Z,87.09
2022-08-23T03:15:16.896Z,86.49
2022-08-23T03:17:45.560Z,86.97
2022-08-23T03:20:16.929Z,87.65
2022-08-23T03:22:54.642Z,88.01
2022-08-23T03:25:34.510Z,87.65
2022-08-23T03:28:10.259Z,87.36
2022-08-23T03:30:43.726Z,87.53
2022-08-23T03:33:14.597Z,88.19
2022-08-23T03:35:46.571Z,88.65
2022-08-23T03:38:16.010Z,89.11
2022-08-23T03:40:53.369Z,88.90
2022-08-23T03:43:24.409Z,88.23
2022-08-23T03:45:52.171Z,88.11
2022-08-23T03:48:20.962Z,88.00
2022-08-23T03:50:50.518Z,89.04
2022-08-23T03:53:27.926Z,88.32
2022-08-23T03:55:59.333Z,88.37
2022-08-23T03:58:30.937Z,88.69
2022-08-23T04:00:59.988Z,88.94
2022-08-23T04:03:28.550Z,89.16
2022-08-23T04:06:05.201Z,89.04
2022-08-23T04:08:41.981Z,89.95
2022-08-23T04:11:19.440Z,90.19
2022-08-23T04:13:57.310Z,90.70
2022-08-23T04:16:25.056Z,91.83
2022-08-23T04:18:56.307Z,91.10
2022-08-23T04:21:31.146Z,91.23
2022-08-23T04:24:01.364Z,90.93
2022-08-23T04:26:30.415Z,90.54
2022-08-23T04:28:57.932Z,90.23
2022-08-23T04:31:31.894Z,90.06
2022-08-23T04:34:15.798Z,89.53
2022-08-23T04:36:51.792Z,89.07
2022-08-23T04:39:33.077Z,89.22
2022-08-23T04:42:22.780Z,88.99
2022-08-23T04:44:56.689Z,88.77
2022-08-23T04:47:36.211Z,88.18
2022-08-23T04:50:10.941Z,88.82
2022-08-23T04:52:58.482Z,88.75
2022-08-23T04:55:29.443Z,88.66
2022-08-23T04:58:06.483Z,87.48
2022-08-23T05:00:47.164Z,86.89
2022-08-23T05:03:21.952Z,87.47
2022-08-23T05:05:49.056Z,87.50
2022-08-23T05:08:18.388Z,86.42
2022-08-23T05:10:46.367Z,86.08
2022-08-23T05:13:18.913Z,85.70
2022-08-23T05:15:46.786Z,85.54
2022-08-23T05:18:16.569Z,85.83
2022-08-23T05:20:46.490Z,84.60
2022-08-23T05:23:18.266Z,84.86
2022-08-23T05:25:59.300Z,84.28
2022-08-23T05:28:43.828Z,84.85
2022-08-23T05:31:25.476Z,84.88
2022-08-23T05:34:00.036Z,84.79
2022-08-23T05:36:47.457Z,84.45
2022-08-23T05:39:36.230Z,83.06
2022-08-23T05:42:09.790Z,81.79
2022-08-23T05:44:39.634Z,81.21
2022-08-23T05:47:13.436Z,82.17
2022-08-23T05:50:16.481Z,81.99
2022-08-23T05:52:49.003Z,81.88
2022-08-23T05:55:39.264Z,82.45
2022-08-23T05:58:28.406Z,82.90
2022-08-23T06:00:57.912Z,83.11
2022-08-23T06:03:29.201Z,82.77
2022-08-23T06:06:01.204Z,83.39
2022-08-23T06:08:30.351Z,83.73
2022-08-23T06:11:10.563Z,84.29
2022-08-23T06:13:46.686Z,83.90
2022-08-23T06:16:19.641Z,83.24
2022-08-23T06:18:49.765Z,83.69
2022-08-23T06:21:46.482Z,84.14
2022-08-23T06:24:16.325Z,84.52
2022-08-23T06:26:54.491Z,85.49
2022-08-23T06:29:25.075Z,83.43
2022-08-23T06:32:15.625Z,83.88
2022-08-23T06:35:32.951Z,84.71
2022-08-23T06:37:59.851Z,83.51
2022-08-23T06:40:48.683Z,83.77
2022-08-23T06:43:26.772Z,83.42
2022-08-23T06:46:16.631Z,80.11
2022-08-23T06:48:46.856Z,80.33
2022-08-23T06:51:25.032Z,80.59
2022-08-23T06:54:20.474Z,81.71
2022-08-23T06:57:06.324Z,83.14
2022-08-23T06:59:58.331Z,82.10
2022-08-23T07:02:36.969Z,80.31
2022-08-23T07:05:23.844Z,80.37
2022-08-23T07:08:06.331Z,80.06
2022-08-23T07:10:36.873Z,78.45
2022-08-23T07:13:06.941Z,77.46
2022-08-23T07:15:36.016Z,77.21
2022-08-23T07:18:06.571Z,77.44
2022-08-23T07:20:39.377Z,78.70
2022-08-23T07:23:10.070Z,79.80
2022-08-23T07:25:40.623Z,78.64
2022-08-23T07:28:12.839Z,78.52
2022-08-23T07:30:45.524Z,78.65
2022-08-23T07:33:16.985Z,79.03
2022-08-23T07:36:18.319Z,78.87
2022-08-23T07:38:51.705Z,77.50
2022-08-23T07:41:31.093Z,76.99
2022-08-23T07:44:05.927Z,72.35
2022-08-23T07:46:38.888Z,74.02
2022-08-23T07:49:11.399Z,75.91
2022-08-23T07:52:06.321Z,74.48
2022-08-23T07:54:33.617Z,72.27
2022-08-23T07:57:11.140Z,74.87
2022-08-23T08:00:20.567Z,74.52
2022-08-23T08:03:01.001Z,75.37
2022-08-23T08:05:41.615Z,75.92
2022-08-23T08:08:14.881Z,75.92
2022-08-23T08:10:47.073Z,75.98
2022-08-23T08:13:14.731Z,77.62
2022-08-23T08:15:46.145Z,76.51
2022-08-23T08:18:16.456Z,77.02
2022-08-23T08:21:05.335Z,77.33
2022-08-23T08:23:58.980Z,76.44
2022-08-23T08:26:51.132Z,78.29
2022-08-23T08:29:19.517Z,77.52
2022-08-23T08:31:53.717Z,77.99
2022-08-23T08:34:27.309Z,80.46
2022-08-23T08:36:59.902Z,78.03
2022-08-23T08:39:34.167Z,79.36
2022-08-23T08:42:14.564Z,77.55
2022-08-23T08:45:01.549Z,77.01
2022-08-23T08:47:54.004Z,76.66
2022-08-23T08:50:39.768Z,76.74
2022-08-23T08:53:37.163Z,76.93
2022-08-23T08:56:32.561Z,72.94
2022-08-23T08:59:27.478Z,72.64
2022-08-23T09:01:58.883Z,72.16
2022-08-23T09:04:41.457Z,72.65
2022-08-23T09:07:31.353Z,72.34
2022-08-23T09:10:38.322Z,71.56
2022-08-23T09:13:26.966Z,72.62
2022-08-23T09:16:14.496Z,73.81
2022-08-23T09:18:45.041Z,74.20
2022-08-23T09:21:28.401Z,74.10
2022-08-23T09:24:01.309Z,72.23
2022-08-23T09:26:50.612Z,70.93
2022-08-23T09:29:34.800Z,72.21
2022-08-23T09:32:14.323Z,72.05
2022-08-23T09:34:44.175Z,73.01
2022-08-23T09:37:26.265Z,72.51
2022-08-23T09:40:17.805Z,70.99
2022-08-23T09:43:04.422Z,71.69
2022-08-23T09:45:37.125Z,68.80
2022-08-23T09:48:16.461Z,69.26
2022-08-23T09:51:11.347Z,69.39
2022-08-23T09:53:50.553Z,68.92
2022-08-23T09:56:31.651Z,69.33
2022-08-23T09:59:02.028Z,68.98
2022-08-23T10:01:51.807Z,69.87
2022-08-23T10:04:49.882Z,70.76
2022-08-23T10:07:42.873Z,70.97
2022-08-23T10:10:36.404Z,68.76
2022-08-23T10:13:06.661Z,69.01
2022-08-23T10:16:09.374Z,68.50
2022-08-23T10:18:46.692Z,67.87
2022-08-23T10:21:34.446Z,67.56
2022-08-23T10:24:19.862Z,69.20
2022-08-23T10:26:58.875Z,67.08
2022-08-23T10:29:40.031Z,66.82
2022-08-23T10:32:40.391Z,65.01
2022-08-23T10:35:26.141Z,65.02
2022-08-23T10:38:30.380Z,65.25
2022-08-23T10:41:36.749Z,64.80
2022-08-23T10:44:27.042Z,67.21
2022-08-23T10:47:24.173Z,67.86
2022-08-23T10:50:01.385Z,69.90
2022-08-23T10:52:36.591Z,67.91
2022-08-23T10:55:35.070Z,67.77
2022-08-23T10:58:09.891Z,67.64
2022-08-23T11:00:39.431Z,68.19
2022-08-23T11:03:21.919Z,67.64
2022-08-23T11:06:31.744Z,68.38
2022-08-23T11:09:06.386Z,68.67
2022-08-23T11:12:14.142Z,67.50
2022-08-23T11:14:49.393Z,67.97
2022-08-23T11:17:59.896Z,66.23
2022-08-23T11:20:59.113Z,66.70
2022-08-23T11:23:54.665Z,67.30
2022-08-23T11:26:25.390Z,67.19
2022-08-23T11:29:17.717Z,66.95
2022-08-23T11:32:34.478Z,66.93
2022-08-23T11:35:37.570Z,68.11
2022-08-23T11:38:17.252Z,65.39
2022-08-23T11:40:50.891Z,64.97
2022-08-23T11:43:34.572Z,65.54
2022-08-23T11:46:28.000Z,63.53
2022-08-23T11:49:30.405Z,63.79
2022-08-23T11:52:06.803Z,63.77
2022-08-23T11:55:05.486Z,62.61
2022-08-23T11:57:56.828Z,62.59
2022-08-23T12:00:31.081Z,61.21
2022-08-23T12:03:04.553Z,57.48
2022-08-23T12:05:38.218Z,57.23
2022-08-23T12:08:06.718Z,57.54
2022-08-23T12:10:41.536Z,55.42
2022-08-23T12:13:23.034Z,57.86
2022-08-23T12:16:17.739Z,54.20
2022-08-23T12:18:59.905Z,53.68
2022-08-23T12:21:41.592Z,55.14
2022-08-23T12:24:17.008Z,55.18
2022-08-23T12:27:02.964Z,56.92
2022-08-23T12:29:52.000Z,57.69
2022-08-23T12:32:40.517Z,57.33
2022-08-23T12:35:39.185Z,55.35
2022-08-23T12:38:19.400Z,55.52
2022-08-23T12:40:54.645Z,56.50
2022-08-23T12:43:24.185Z,55.33
2022-08-23T12:46:19.841Z,54.26
2022-08-23T12:48:48.297Z,53.72
2022-08-23T12:51:17.217Z,53.38
2022-08-23T12:53:46.257Z,53.86
2022-08-23T12:56:32.027Z,53.12
2022-08-23T12:59:07.569Z,56.62
2022-08-23T13:01:39.314Z,51.44
2022-08-23T13:04:14.780Z,48.36
2022-08-23T13:06:42.324Z,49.35
2022-08-23T13:09:29.050Z,48.95
2022-08-23T13:12:00.497Z,49.15
2022-08-23T13:14:40.005Z,50.80
2022-08-23T13:17:32.256Z,49.24
2022-08-23T13:20:04.046Z,51.06
2022-08-23T13:22:34.828Z,52.74
2022-08-23T13:25:45.320Z,51.09
2022-08-23T13:28:31.198Z,52.89
2022-08-23T13:31:11.099Z,53.07
2022-08-23T13:33:41.133Z,54.65
2022-08-23T13:36:37.248Z,54.74
2022-08-23T13:39:15.777Z,55.16
2022-08-23T13:41:46.980Z,54.40
2022-08-23T13:44:22.490Z,53.44
2022-08-23T13:46:54.518Z,53.99
2022-08-23T13:49:28.813Z,55.04
2022-08-23T13:52:17.231Z,55.43
2022-08-23T13:54:51.362Z,55.60
2022-08-23T13:57:21.465Z,55.31
2022-08-23T13:59:56.193Z,55.19
2022-08-23T14:02:25.971Z,52.74
2022-08-23T14:04:55.116Z,52.93
2022-08-23T14:07:24.580Z,51.97
2022-08-23T14:09:55.370Z,51.85
2022-08-23T14:12:27.745Z,52.45
2022-08-23T14:14:59.045Z,52.35
2022-08-23T14:17:31.001Z,51.53
2022-08-23T14:23:04.865Z,51.83
2022-08-23T14:25:40.171Z,51.37
2022-08-23T14:28:07.911Z,51.69
2022-08-23T14:30:38.460Z,51.04
2022-08-23T14:33:09.674Z,50.64
2022-08-23T14:35:39.519Z,48.85
2022-08-23T14:38:06.955Z,47.94
2022-08-23T14:40:37.201Z,48.36
2022-08-23T14:43:09.447Z,49.78
2022-08-23T14:45:37.200Z,50.82
2022-08-23T14:48:06.280Z,51.40
2022-08-23T14:50:36.296Z,51.43
2022-08-23T14:53:09.101Z,52.07
2022-08-23T14:55:40.102Z,51.99
2022-08-23T14:58:08.647Z,53.09
2022-08-23T15:00:37.308Z,53.89
2022-08-23T15:03:11.653Z,54.62
2022-08-23T15:05:39.442Z,54.31
2022-08-23T15:08:07.874Z,54.67
2022-08-23T15:12:55.314Z,54.84
2022-08-23T15:13:33.210Z,55.45
2022-08-23T15:16:06.627Z,55.58
2022-08-23T15:18:39.987Z,55.04
2022-08-23T15:21:10.999Z,55.05
2022-08-23T15:23:41.877Z,54.48
2022-08-23T15:26:11.023Z,54.44
2022-08-23T15:28:40.149Z,52.37
2022-08-23T15:31:10.125Z,52.03
2022-08-23T15:33:39.606Z,52.46
2022-08-23T15:36:15.072Z,51.71
2022-08-23T15:38:50.570Z,52.71
2022-08-23T15:41:20.039Z,50.75
2022-08-23T15:43:57.524Z,50.98
2022-08-23T15:46:34.652Z,50.87
2022-08-23T15:49:36.003Z,50.52
2022-08-23T15:52:09.209Z,51.27
2022-08-23T15:54:39.684Z,51.53
2022-08-23T15:57:11.300Z,52.25
2022-08-23T15:59:40.836Z,53.13
2022-08-23T16:02:11.381Z,52.62
2022-08-23T16:04:40.565Z,53.75
2022-08-23T16:07:14.201Z,54.16
2022-08-23T16:09:44.715Z,55.15
2022-08-23T16:12:13.186Z,55.97
2022-08-23T16:14:41.054Z,56.54
2022-08-23T16:17:10.185Z,57.07
2022-08-23T16:19:39.535Z,57.43
2022-08-23T16:22:09.899Z,57.12
2022-08-23T16:24:39.691Z,57.63
2022-08-23T16:27:12.011Z,57.18
2022-08-23T16:29:41.263Z,57.54
2022-08-23T16:32:09.740Z,57.11
2022-08-23T16:34:39.553Z,56.86
2022-08-23T16:37:10.583Z,56.97
2022-08-23T16:39:38.268Z,57.44
2022-08-23T16:42:09.990Z,57.00
2022-08-23T16:44:39.748Z,57.22
2022-08-23T16:47:10.946Z,58.18
2022-08-23T16:49:38.427Z,58.06
2022-08-23T16:52:07.059Z,57.89
2022-08-23T16:54:39.448Z,58.59
2022-08-23T16:57:09.461Z,58.44
2022-08-23T16:59:40.667Z,58.90
2022-08-23T17:02:46.583Z,59.67
2022-08-23T17:05:17.923Z,59.54
2022-08-23T17:07:46.597Z,59.48
2022-08-23T17:10:19.449Z,60.10
2022-08-23T17:12:51.278Z,60.29
2022-08-23T17:15:26.825Z,60.37
2022-08-23T17:17:59.971Z,60.35
2022-08-23T17:20:30.521Z,60.96
2022-08-23T17:22:59.949Z,61.41
2022-08-23T17:25:30.580Z,62.09
2022-08-23T17:28:08.568Z,61.92
2022-08-23T17:30:45.638Z,62.66
2022-08-23T17:33:15.446Z,63.04
2022-08-23T17:35:47.387Z,62.82
2022-08-23T17:38:16.391Z,62.82
2022-08-23T17:40:43.958Z,63.06
2022-08-23T17:43:13.210Z,62.88
2022-08-23T17:45:44.515Z,63.08
2022-08-23T17:48:15.143Z,63.94
2022-08-23T17:51:05.278Z,64.57
2022-08-23T17:53:44.481Z,64.77
2022-08-23T17:56:14.632Z,65.50
2022-08-23T17:58:45.786Z,65.50
2022-08-23T18:01:24.811Z,65.82
2022-08-23T18:03:55.157Z,65.69
2022-08-23T18:06:24.581Z,65.85
2022-08-23T18:08:55.975Z,66.47
2022-08-23T18:11:27.367Z,66.79
2022-08-23T18:13:56.826Z,66.97
2022-08-23T18:16:34.411Z,66.72
2022-08-23T18:19:11.267Z,66.52
2022-08-23T18:21:50.305Z,66.67
2022-08-23T18:24:19.460Z,66.74
2022-08-23T18:27:06.821Z,66.64
2022-08-23T18:29:39.857Z,66.39
2022-08-23T18:32:20.182Z,67.10
2022-08-23T18:34:50.188Z,66.63
2022-08-23T18:37:21.941Z,66.31
2022-08-23T18:39:50.699Z,67.07
2022-08-23T18:42:18.100Z,67.13
2022-08-23T18:44:46.340Z,66.91
2022-08-23T18:47:17.948Z,67.17
2022-08-23T18:49:46.422Z,66.87
2022-08-23T18:52:16.981Z,67.49
2022-08-23T18:54:48.181Z,67.68
2022-08-23T18:57:18.931Z,67.52
2022-08-23T18:59:49.810Z,67.86
2022-08-23T19:02:18.048Z,68.35
2022-08-23T19:04:47.141Z,68.41
2022-08-23T19:07:21.128Z,68.82
2022-08-23T19:09:50.218Z,69.42
2022-08-23T19:12:20.835Z,69.79
2022-08-23T19:14:49.469Z,70.18
2022-08-23T19:17:18.817Z,70.47
2022-08-23T19:19:50.127Z,70.39
2022-08-23T19:22:19.853Z,70.52
2022-08-23T19:24:49.844Z,70.23
2022-08-23T19:27:19.416Z,70.56
2022-08-23T19:29:47.206Z,70.20
2022-08-23T19:32:17.256Z,70.12
2022-08-23T19:34:45.541Z,70.23
2022-08-23T19:37:23.033Z,70.09
2022-08-23T19:39:55.244Z,69.92
2022-08-23T19:42:25.362Z,70.49
2022-08-23T19:44:55.179Z,71.18
2022-08-23T19:47:28.108Z,70.81
2022-08-23T19:49:59.993Z,70.99
2022-08-23T19:52:30.681Z,70.68
2022-08-23T19:55:05.345Z,71.47
2022-08-23T19:57:37.429Z,71.31
2022-08-23T20:00:19.436Z,71.41
2022-08-23T20:02:51.996Z,71.55
2022-08-23T20:05:21.163Z,71.63
2022-08-23T20:07:49.870Z,71.59
2022-08-23T20:10:19.398Z,71.76
2022-08-23T20:12:49.860Z,71.82
2022-08-23T20:15:20.418Z,72.16
2022-08-23T20:17:51.329Z,71.54
2022-08-23T20:20:19.745Z,71.96
2022-08-23T20:23:07.082Z,72.42
2022-08-23T20:25:36.831Z,72.86
2022-08-23T20:28:08.987Z,72.52
2022-08-23T20:30:40.137Z,72.19
2022-08-23T20:33:09.788Z,72.16
2022-08-23T20:35:38.343Z,72.38
2022-08-23T20:38:08.663Z,72.49
2022-08-23T20:40:51.060Z,72.74
2022-08-23T20:43:25.111Z,73.24
2022-08-23T20:45:55.008Z,73.16
2022-08-23T20:48:26.585Z,72.92
2022-08-23T20:50:54.980Z,72.91
2022-08-23T20:53:25.252Z,72.62
2022-08-23T20:55:55.109Z,72.69
2022-08-23T20:58:27.307Z,73.04
2022-08-23T21:00:56.878Z,72.54
2022-08-23T21:03:26.901Z,73.09
2022-08-23T21:06:27.461Z,72.29
2022-08-23T21:08:59.387Z,72.05
2022-08-23T21:11:30.441Z,72.53
2022-08-23T21:14:01.466Z,72.39
2022-08-23T21:16:37.826Z,72.47
2022-08-23T21:19:05.461Z,72.33
2022-08-23T21:21:35.471Z,72.81
2022-08-23T21:24:03.619Z,73.18
2022-08-23T21:26:32.764Z,73.57
2022-08-23T21:28:59.951Z,73.57
2022-08-23T21:31:31.095Z,73.03
2022-08-23T21:34:01.539Z,73.58
2022-08-23T21:36:31.341Z,73.46
2022-08-23T21:38:59.212Z,73.71
2022-08-23T21:41:50.745Z,74.68
2022-08-23T21:44:21.150Z,75.63
2022-08-23T21:46:51.310Z,74.67
2022-08-23T21:49:24.717Z,74.80
2022-08-23T21:51:56.811Z,74.68
2022-08-23T21:54:28.341Z,74.50
2022-08-23T21:56:57.868Z,74.21
2022-08-23T21:59:26.902Z,74.27
2022-08-23T22:01:57.183Z,74.61
2022-08-23T22:04:25.220Z,73.35
2022-08-23T22:06:55.844Z,73.42
2022-08-23T22:09:31.358Z,73.59
2022-08-23T22:12:00.663Z,73.27
2022-08-23T22:14:34.779Z,73.15
2022-08-23T22:17:04.886Z,73.04
2022-08-23T22:19:35.319Z,73.02
2022-08-23T22:22:05.684Z,73.42
2022-08-23T22:24:37.171Z,73.20
2022-08-23T22:27:07.433Z,72.86
2022-08-23T22:29:38.903Z,73.24
2022-08-23T22:32:06.343Z,72.98
2022-08-23T22:34:37.101Z,72.75
2022-08-23T22:37:05.947Z,73.29
2022-08-23T22:39:33.649Z,73.24
2022-08-23T22:42:04.501Z,73.05
2022-08-23T22:44:34.190Z,73.03
2022-08-23T22:47:05.381Z,73.09
2022-08-23T22:49:34.139Z,73.09
2022-08-23T22:52:01.687Z,73.24
2022-08-23T22:54:30.021Z,73.89
2022-08-23T22:56:59.273Z,73.84
2022-08-23T22:59:27.750Z,74.17
2022-08-23T23:02:03.301Z,74.77
2022-08-23T23:04:34.680Z,74.58
2022-08-23T23:07:04.952Z,74.68
2022-08-23T23:09:37.756Z,74.54
2022-08-23T23:12:06.283Z,74.48
2022-08-23T23:14:37.306Z,74.02
2022-08-23T23:17:07.140Z,73.85
2022-08-23T23:19:56.546Z,73.44
2022-08-23T23:22:26.440Z,73.09
2022-08-23T23:24:54.946Z,73.53
2022-08-23T23:27:25.265Z,73.16
2022-08-23T23:29:53.553Z,73.47
2022-08-23T23:32:21.257Z,73.49
2022-08-23T23:34:49.832Z,73.73
2022-08-23T23:37:17.910Z,73.96
2022-08-23T23:39:46.644Z,73.44
2022-08-23T23:42:13.666Z,73.16
2022-08-23T23:44:40.779Z,73.33
2022-08-23T23:47:16.848Z,73.46
2022-08-23T23:50:03.390Z,73.88
2022-08-23T23:52:45.549Z,74.94
2022-08-23T23:55:39.132Z,76.08
2022-08-23T23:58:34.982Z,75.17
